FD95 weather

CLOSED Goose Nest Seaplane Base
Santa Rosa Beach, Florida, United States

Public forecast

Using degrees Fahrenheit for public forecast. Weather courtesy of forecast.io.

METAR (pilot weather report)

Closest report is Destin Executive Airport, 14.6 nm (27.1 km) W. Retrieved 2018/12/15 04:22 UTC (0 seconds ago):

KDTS 150422Z AUTO 00000KT 10SM SCT025 OVC030 14/12 A2992 RMK AO2 T01440122

TAF (pilot weather forecast)

Closest forecast is Destin-Ft Walton Beach Airport, 18.1 nm (33.6 km) WNW. Retrieved 2018/12/15 02:27 UTC (2 hours ago):

TAF KVPS 150205Z 1502/1608 23006KT 9999 SCT035 OVC100 520802 QNH2985INS BECMG 1503/1504 23008KT 9999 VCSH SCT025 OVC055 520802 QNH2988INS BECMG 1507/1508 24012KT 9999 NSW OVC022 520505 QNH2994INS TEMPO 1508/1514 SCT022 BKN055 BECMG 1514/1515 25012G18KT 9999 SCT015 BKN024 OVC035 QNH3000INS WND 27010KT AFT 1600 BECMG 1603/1604 30006KT 9999 SCT010 OVC025 QNH3010INS TX17/1520Z TN10/1510Z